KTDZ/TDZ METAR and TAF weather

Enter ICAO airport designator
Station Type Date Time Source
KTDZ METAR 2019/08/18 09:53 UTC NOAA

KTDZ 180953Z AUTO 20004KT 10SM FEW070 FEW110 22/20 A2992 RMK AO2 TSE08 SLPNO T02170200 PWINO $


Station Type Date Time Source
KTDZ Decoded METAR 2019/08/18 09:53 UTC NOAA

Station name not available
Aug 18, 2019 - 05:53 AM EDT / 2019.08.18 0953 UTC
Wind: from the SSW (200 degrees) at 5 MPH (4 KT):0
Visibility: 10 mile(s):0
Sky conditions: mostly clear
Temperature: 71.1 F (21.7 C)
Dew Point: 68.0 F (20.0 C)
Relative Humidity: 90%
Pressure (altimeter): 29.92 in. Hg (1013 hPa)
ob: KTDZ 180953Z AUTO 20004KT 10SM FEW070 FEW110 22/20 A2992 RMK AO2 TSE08 SLPNO T02170200 PWINO
cycle: 10

Station Type Date Time Source
KTDZ TAF UTC NOAA

Error!

Example: see airport list